Time;durP1;ratioP1;P1;durP2;ratioP2;P2;SDS_P1;SDS_P2;PMS_P1;PMS_P2;Temp;Humidity;BMP_temperature;BMP_pressure;BME280_temperature;BME280_humidity;BME280_pressure;Samples;Min_cycle;Max_cycle;Signal;HPM_P1;HPM_P2
2023/10/20 00:00:14;;;;;;;;;;;;;;;;;;5053981;28;19950;-72
2023/10/20 00:02:40;;;;;;;;;;;;;;;;;;5054001;28;19905;-72
2023/10/20 00:05:06;;;;;;;;;;;;;;;;;;5052676;28;19909;-72
2023/10/20 00:07:32;;;;;;;;;;;;;;;;;;5053930;28;19909;-69
2023/10/20 00:09:59;;;;;;;;;;;;;;;;;;5053418;28;19913;-72
2023/10/20 00:12:25;;;;;;;;;;;;;;;;;;5053873;28;19912;-70
2023/10/20 00:14:51;;;;;;;;;;;;;;;;;;5053836;28;19928;-70
2023/10/20 00:17:17;;;;;;;;;;;;;;;;;;5053371;28;19936;-70
2023/10/20 00:19:43;;;;;;;;;;;;;;;;;;5053756;28;19904;-70
2023/10/20 00:22:10;;;;;;;;;;;;;;;;;;5052505;28;19911;-70
2023/10/20 00:24:36;;;;;;;;;;;;;;;;;;5053332;28;19911;-70
2023/10/20 00:27:03;;;;;;;;;;;;;;;;;;5053720;28;20276;-70
2023/10/20 00:29:29;;;;;;;;;;;;;;;;;;5053464;28;19916;-70
2023/10/20 00:31:55;;;;;;;;;;;;;;;;;;5053195;28;19912;-71
2023/10/20 00:34:21;;;;;;;;;;;;;;;;;;5053630;28;19904;-71
2023/10/20 00:36:47;;;;;;;;;;;;;;;;;;5053770;28;19912;-71
2023/10/20 00:39:12;;;;;;;;;;;;;;;;;;5051962;28;20377;-70
2023/10/20 00:41:38;;;;;;;;;;;;;;;;;;5053533;28;20001;-70
2023/10/20 00:44:04;;;;;;;;;;;;;;;;;;5053476;28;19911;-70
2023/10/20 00:46:30;;;;;;;;;;;;;;;;;;5053115;28;20006;-70
2023/10/20 00:48:56;;;;;;;;;;;;;;;;;;5053390;28;19919;-70
2023/10/20 00:51:24;;;;;;;;;;;;;;;;;;5052260;28;19940;-71
2023/10/20 00:53:50;;;;;;;;;;;;;;;;;;5053092;28;19904;-71
2023/10/20 00:56:16;;;;;;;;;;;;;;;;;;5053433;28;19909;-70
2023/10/20 00:58:42;;;;;;;;;;;;;;;;;;5053402;28;19905;-70
2023/10/20 01:01:08;;;;;;;;;;;;;;;;;;5052980;28;19904;-71
2023/10/20 01:03:35;;;;;;;;;;;;;;;;;;5053383;28;19915;-71
2023/10/20 01:06:01;;;;;;;;;;;;;;;;;;5053076;28;20451;-71
2023/10/20 01:08:27;;;;;;;;;;;;;;;;;;5053223;28;20015;-71
2023/10/20 01:10:53;;;;;;;;;;;;;;;;;;5053308;28;19930;-71
2023/10/20 01:13:21;;;;;;;;;;;;;;;;;;5052857;28;20188;-71
2023/10/20 01:15:47;;;;;;;;;;;;;;;;;;5055218;28;20365;-71
2023/10/20 01:18:14;;;;;;;;;;;;;;;;;;5057371;28;19905;-71
2023/10/20 01:20:40;;;;;;;;;;;;;;;;;;5056606;28;19905;-71
2023/10/20 01:23:06;;;;;;;;;;;;;;;;;;5056979;28;20276;-71
2023/10/20 01:25:32;;;;;;;;;;;;;;;;;;5056911;28;19904;-71
2023/10/20 01:27:58;;;;;;;;;;;;;;;;;;5056174;28;19904;-71
2023/10/20 01:30:25;;;;;;;;;;;;;;;;;;5056862;28;19947;-70
2023/10/20 01:32:51;;;;;;;;;;;;;;;;;;5057369;28;19904;-70
2023/10/20 01:35:17;;;;;;;;;;;;;;;;;;5056346;28;19927;-70
2023/10/20 01:37:42;;;;;;;;;;;;;;;;;;5056675;28;19936;-70
2023/10/20 01:40:09;;;;;;;;;;;;;;;;;;5056612;28;19905;-71
2023/10/20 01:42:35;;;;;;;;;;;;;;;;;;5056157;28;19915;-70
2023/10/20 01:45:02;;;;;;;;;;;;;;;;;;5056588;28;19904;-70
2023/10/20 01:47:28;;;;;;;;;;;;;;;;;;5056457;28;20383;-70
2023/10/20 01:49:55;;;;;;;;;;;;;;;;;;5056031;28;19913;-70
2023/10/20 01:52:21;;;;;;;;;;;;;;;;;;5056402;28;19905;-70
2023/10/20 01:54:47;;;;;;;;;;;;;;;;;;5056882;28;19905;-71
2023/10/20 01:57:13;;;;;;;;;;;;;;;;;;5056085;28;19911;-71
2023/10/20 01:59:39;;;;;;;;;;;;;;;;;;5056422;28;19952;-70
2023/10/20 02:02:05;;;;;;;;;;;;;;;;;;5056310;28;19904;-70
2023/10/20 02:04:31;;;;;;;;;;;;;;;;;;5055903;28;19912;-71
2023/10/20 02:06:57;;;;;;;;;;;;;;;;;;5056618;28;19966;-71
2023/10/20 02:09:26;;;;;;;;;;;;;;;;;;5055723;28;20316;-71
2023/10/20 02:11:52;;;;;;;;;;;;;;;;;;5056118;28;19944;-71
2023/10/20 02:14:18;;;;;;;;;;;;;;;;;;5054755;28;19936;-71
2023/10/20 02:16:44;;;;;;;;;;;;;;;;;;5055547;28;20272;-71
2023/10/20 02:19:10;;;;;;;;;;;;;;;;;;5054615;28;20258;-72
2023/10/20 02:21:37;;;;;;;;;;;;;;;;;;5055835;28;19916;-71
2023/10/20 02:24:03;;;;;;;;;;;;;;;;;;5055423;28;19911;-71
2023/10/20 02:26:28;;;;;;;;;;;;;;;;;;5055705;28;19908;-71
2023/10/20 02:28:54;;;;;;;;;;;;;;;;;;5055607;28;19956;-71
2023/10/20 02:31:20;;;;;;;;;;;;;;;;;;5055310;28;19905;-70
2023/10/20 02:33:46;;;;;;;;;;;;;;;;;;5055666;28;19965;-71
2023/10/20 02:36:12;;;;;;;;;;;;;;;;;;5055575;28;19958;-70
2023/10/20 02:38:38;;;;;;;;;;;;;;;;;;5055116;28;19989;-70
2023/10/20 02:41:05;;;;;;;;;;;;;;;;;;5054232;28;19905;-70
2023/10/20 02:43:31;;;;;;;;;;;;;;;;;;5054154;28;19909;-70
2023/10/20 02:45:57;;;;;;;;;;;;;;;;;;5055003;28;19912;-70
2023/10/20 02:48:23;;;;;;;;;;;;;;;;;;5055273;28;19909;-70
2023/10/20 02:50:49;;;;;;;;;;;;;;;;;;5055314;28;19911;-72
2023/10/20 02:53:15;;;;;;;;;;;;;;;;;;5055056;28;20349;-71
2023/10/20 02:55:41;;;;;;;;;;;;;;;;;;5055213;28;19959;-71
2023/10/20 02:58:07;;;;;;;;;;;;;;;;;;5055222;28;19905;-71
2023/10/20 03:00:33;;;;;;;;;;;;;;;;;;5053441;28;19946;-71
2023/10/20 03:02:59;;;;;;;;;;;;;;;;;;5055145;28;20365;-71
2023/10/20 03:05:32;;;;;;;202.63;171.93;;;;;;;;;;5052133;28;20850;-71
2023/10/20 03:07:58;;;;;;;;;;;;;;;;;;5054999;28;20091;-71
2023/10/20 03:10:24;;;;;;;;;;;;;;;;;;5054892;28;19908;-71
2023/10/20 03:12:50;;;;;;;;;;;;;;;;;;5054445;28;19905;-71
2023/10/20 03:15:16;;;;;;;;;;;;;;;;;;5055149;28;20341;-72
2023/10/20 03:17:42;;;;;;;;;;;;;;;;;;5054837;28;19916;-71
2023/10/20 03:20:09;;;;;;;;;;;;;;;;;;5054315;28;19905;-72
2023/10/20 03:22:35;;;;;;;;;;;;;;;;;;5055019;28;19905;-71
2023/10/20 03:25:02;;;;;;;;;;;;;;;;;;5054687;28;19951;-71
2023/10/20 03:27:28;;;;;;;;;;;;;;;;;;5054209;28;20384;-71
2023/10/20 03:29:54;;;;;;;;;;;;;;;;;;5054394;28;19920;-71
2023/10/20 03:32:20;;;;;;;;;;;;;;;;;;5053132;28;19909;-71
2023/10/20 03:34:46;;;;;;;;;;;;;;;;;;5054020;28;20015;-70
2023/10/20 03:37:13;;;;;;;;;;;;;;;;;;5054410;28;20365;-70
2023/10/20 03:39:39;;;;;;;;;;;;;;;;;;5054026;28;19911;-70
2023/10/20 03:42:07;;;;;;;;;;;;;;;;;;5053988;28;19999;-70
2023/10/20 03:44:35;;;;;;;;;;;;;;;;;;5054324;28;19909;-70
2023/10/20 03:47:01;;;;;;;;;;;;;;;;;;5053007;28;19905;-70
2023/10/20 03:49:32;;;;;;;;;;;;;;;;;;5053750;28;19966;-70
2023/10/20 03:51:58;;;;;;;;;;;;;;;;;;5054104;28;19905;-70
2023/10/20 03:54:25;;;;;;;;;;;;;;;;;;5054106;28;19911;-70
2023/10/20 03:56:51;;;;;;;;;;;;;;;;;;5053682;28;19912;-70
2023/10/20 03:59:17;;;;;;;;;;;;;;;;;;5054066;28;19905;-70
2023/10/20 04:01:43;;;;;;;;;;;;;;;;;;5053847;28;19911;-70
2023/10/20 04:04:09;;;;;;;;;;;;;;;;;;5053624;28;19904;-70
2023/10/20 04:06:36;;;;;;;;;;;;;;;;;;5053069;28;19908;-70
2023/10/20 04:09:07;;;;;;;;;;;;;;;;;;5052416;28;20007;-70
2023/10/20 04:11:34;;;;;;;;;;;;;;;;;;5053927;28;20357;-70
2023/10/20 04:14:00;;;;;;;;;;;;;;;;;;5053502;28;19904;-70
2023/10/20 04:16:27;;;;;;;;;;;;;;;;;;5052304;28;19908;-70
2023/10/20 04:18:53;;;;;;;;;;;;;;;;;;5054067;28;19907;-70
2023/10/20 04:21:19;;;;;;;;;;;;;;;;;;5054091;28;19905;-70
2023/10/20 04:23:45;;;;;;;;;;;;;;;;;;5053268;28;19947;-70
2023/10/20 04:26:18;;;;;;;;;;;;;;;;;;5053760;28;20000;-70
2023/10/20 04:28:44;;;;;;;;;;;;;;;;;;5052854;28;19917;-70
2023/10/20 05:01:16;;;;;;;;;;;;;;;;;;5055360;28;19940;-70
2023/10/20 05:03:45;;;;;;;;;;;;;;;;;;5055979;28;19905;-70
2023/10/20 05:06:24;;;;;;;;;;;;;;;;;;5054933;28;19927;-70
2023/10/20 05:08:50;;;;;;;;;;;;;;;;;;5054050;28;19916;-70
2023/10/20 05:11:15;;;;;;;;;;;;;;;;;;5055082;28;19909;-71
2023/10/20 05:13:41;;;;;;;;;;;;;;;;;;5056500;28;19904;-71
2023/10/20 05:16:10;;;;;;;;;;;;;;;;;;5055674;28;19909;-71
2023/10/20 05:18:36;;;;;;;;;;;;;;;;;;5056933;28;19912;-71
2023/10/20 05:21:02;;;;;;;;;;;;;;;;;;5053814;28;19904;-67
2023/10/20 05:23:28;;;;;;;;;;;;;;;;;;5053691;28;20013;-67
2023/10/20 05:25:54;;;;;;;;;;;;;;;;;;5054585;28;19909;-65
2023/10/20 05:28:20;;;;;;;;;;;;;;;;;;5054748;28;19940;-64
2023/10/20 05:30:47;;;;;;;;;;;;;;;;;;5055401;28;20003;-67
2023/10/20 05:33:15;;;;;;;;;;;;;;;;;;5056054;28;19905;-72
2023/10/20 05:35:41;;;;;;;;;;;;;;;;;;5050747;28;20357;-70
2023/10/20 05:38:07;;;;;;;;;;;;;;;;;;5042031;28;19913;-68
2023/10/20 05:40:32;;;;;;;;;;;;;;;;;;5044505;28;20303;-68
2023/10/20 05:42:59;;;;;;;;;;;;;;;;;;5053239;28;19962;-68
2023/10/20 05:45:29;;;;;;;;;;;;;;;;;;5053298;28;20495;-72
2023/10/20 05:47:56;;;;;;;272.40;196.52;;;;;;;;;;5048632;28;20452;-69
2023/10/20 05:50:23;;;;;;;;;;;;;;;;;;5046410;28;20065;-71
2023/10/20 05:52:48;;;;;;;;;;;;;;;;;;5040117;28;20508;-68
2023/10/20 05:55:14;;;;;;;;;;;;;;;;;;5050787;28;20369;-68
2023/10/20 05:57:40;;;;;;;;;;;;;;;;;;5053342;28;19913;-68
2023/10/20 06:00:07;;;;;;;;;;;;;;;;;;5053537;28;20337;-68
2023/10/20 06:02:34;;;;;;;;;;;;;;;;;;5052066;28;19916;-69
2023/10/20 06:05:00;;;;;;;;;;;;;;;;;;5054079;28;19909;-67
2023/10/20 06:07:27;;;;;;;;;;;;;;;;;;5052948;28;20285;-68
2023/10/20 06:09:54;;;;;;;;;;;;;;;;;;5054547;28;20049;-69
2023/10/20 06:12:20;;;;;;;;;;;;;;;;;;5053697;28;19962;-70
2023/10/20 06:14:47;;;;;;;;;;;;;;;;;;5054647;28;19912;-69
2023/10/20 06:17:17;;;;;;;;;;;;;;;;;;5046944;28;19924;-70
2023/10/20 06:19:44;;;;;;;;;;;;;;;;;;5027304;28;19954;-70
2023/10/20 06:22:10;;;;;;;;;;;;;;;;;;5023768;28;19912;-69
2023/10/20 06:24:41;;;;;;;;;;;;;;;;;;5044222;28;20441;-69
2023/10/20 06:27:07;;;;;;;;;;;;;;;;;;5049898;28;20005;-69
2023/10/20 06:34:41;;;;;;;;;;;;;;;;;;5051780;28;19911;-68
2023/10/20 06:37:08;;;;;;;;;;;;;;;;;;5045603;28;19905;-69
2023/10/20 06:39:35;;;;;;;;;;;;;;;;;;5040983;28;20343;-66
2023/10/20 06:42:01;;;;;;;;;;;;;;;;;;5019381;28;19940;-66
2023/10/20 06:44:27;;;;;;;;;;;;;;;;;;5042396;28;20407;-65
2023/10/20 06:46:52;;;;;;;;;;;;;;;;;;5057298;28;20444;-70
2023/10/20 06:49:18;;;;;;;;;;;;;;;;;;5052714;28;20284;-67
2023/10/20 06:51:46;;;;;;;;;;;;;;;;;;5053547;28;19905;-67
2023/10/20 06:54:11;;;;;;;;;;;;;;;;;;5038877;28;19931;-68
2023/10/20 06:56:38;;;;;;;;;;;;;;;;;;5031689;28;19909;-66
2023/10/20 06:59:03;;;;;;;;;;;;;;;;;;5048089;28;20447;-67
2023/10/20 07:01:32;;;;;;;;;;;;;;;;;;5053676;28;20003;-65
2023/10/20 07:03:58;;;;;;;;;;;;;;;;;;5052058;28;19909;-65
2023/10/20 07:06:24;;;;;;;;;;;;;;;;;;5050755;28;19915;-64
2023/10/20 07:08:59;;;;;;;;;;;;;;;;;;5086363;27;19920;-65
2023/10/20 07:11:25;;;;;;;;;;;;;;;;;;5085922;28;19916;-65
2023/10/20 07:13:51;;;;;;;;;;;;;;;;;;5082964;28;19982;-66
2023/10/20 07:16:17;;;;;;;;;;;;;;;;;;5086216;28;19915;-68
2023/10/20 07:18:43;;;;;;;;;;;;;;;;;;5079640;28;19978;-63
2023/10/20 07:21:09;;;;;;;;;;;;;;;;;;5084273;28;19939;-66
2023/10/20 07:23:35;;;;;;;;;;;;;;;;;;5082044;28;19909;-68
2023/10/20 07:26:01;;;;;;;;;;;;;;;;;;5070112;28;19919;-67
2023/10/20 07:28:27;;;;;;;;;;;;;;;;;;5080152;28;20015;-66
2023/10/20 07:30:53;;;;;;;;;;;;;;;;;;5084574;28;19916;-65
2023/10/20 07:33:19;;;;;;;;;;;;;;;;;;5086808;28;19966;-65
2023/10/20 07:35:52;;;;;;;;;;;;;;;;;;5087778;28;19916;-66
2023/10/20 07:38:19;;;;;;;;;;;;;;;;;;5088662;28;19948;-69
2023/10/20 07:40:45;;;;;;;536.47;269.52;;;;;;;;;;5087151;28;20381;-75
2023/10/20 07:43:11;;;;;;;;;;;;;;;;;;5087788;28;20035;-72
2023/10/20 07:45:38;;;;;;;509.50;273.20;;;;;;;;;;5086020;28;20791;-71
2023/10/20 07:48:49;;;;;;;;;;;;;;;;;;5116218;27;19930;-64
2023/10/20 07:51:15;;;;;;;;;;;;;;;;;;5114357;27;19991;-64
2023/10/20 07:53:41;;;;;;;;;;;;;;;;;;5118263;28;20019;-68
2023/10/20 07:56:07;;;;;;;;;;;;;;;;;;5109234;28;19920;-69
2023/10/20 07:58:33;;;;;;;527.73;275.03;;;;;;;;;;5110809;28;20376;-68
2023/10/20 08:01:00;;;;;;;;;;;;;;;;;;5106802;28;20039;-66
2023/10/20 08:03:26;;;;;;;334.38;218.52;;;;;;;;;;5105564;28;19982;-69
2023/10/20 08:05:52;;;;;;;;;;;;;;;;;;5105634;28;20210;-69
2023/10/20 08:08:19;;;;;;;513.20;273.02;;;;;;;;;;5116852;28;20426;-66
2023/10/20 08:10:44;;;;;;;;;;;;;;;;;;5101118;28;20017;-66
2023/10/20 08:13:11;;;;;;;386.67;235.02;;;;;;;;;;5100109;28;19931;-67
2023/10/20 08:15:38;;;;;;;;;;;;;;;;;;5107955;28;20565;-66
2023/10/20 08:18:04;;;;;;;;;;;;;;;;;;5101821;28;20361;-69
2023/10/20 08:20:30;;;;;;;;;;;;;;;;;;5092445;28;19912;-69
2023/10/20 08:22:56;;;;;;;;;;;;;;;;;;5094052;28;19953;-67
2023/10/20 08:25:22;;;;;;;520.65;278.48;;;;;;;;;;5095986;28;20929;-69
2023/10/20 08:27:48;;;;;;;;;;;;;;;;;;5100049;28;20047;-69
2023/10/20 08:30:15;;;;;;;499.98;271.60;;;;;;;;;;5087380;28;20390;-69
2023/10/20 08:32:54;;;;;;;388.17;226.00;;;;;;;;;;5061864;28;20742;-67
2023/10/20 08:35:21;;;;;;;357.10;229.70;;;;;;;;;;5046980;28;20421;-67
2023/10/20 08:37:47;;;;;;;355.25;224.13;;;;;;;;;;5035459;28;20168;-68
2023/10/20 08:42:26;;;;;;;459.30;264.15;;;;;;;;;;5102840;27;20469;-67
2023/10/20 08:44:52;;;;;;;456.52;271.30;;;;;;;;;;5104180;28;20498;-69
2023/10/20 08:47:23;;;;;;;430.38;257.67;;;;;;;;;;5091652;28;20496;-70
2023/10/20 08:50:13;;;;;;;;;;;;;;;;;;5097359;27;20333;-71
2023/10/20 08:52:40;;;;;;;357.20;225.27;;;;;;;;;;5080046;28;20921;-70
2023/10/20 08:55:07;;;;;;;;;;;;;;;;;;5082553;28;20490;-68
2023/10/20 08:57:33;;;;;;;;;;;;;;;;;;5083615;28;20386;-71
2023/10/20 08:59:59;;;;;;;;;;;;;;;;;;5087518;28;20015;-72
2023/10/20 09:02:25;;;;;;;;;;;;;;;;;;5086964;28;19940;-70
2023/10/20 09:04:51;;;;;;;;;;;;;;;;;;5087603;28;19909;-69
2023/10/20 09:07:17;;;;;;;;;;;;;;;;;;5085669;28;19912;-70
2023/10/20 09:09:43;;;;;;;;;;;;;;;;;;5086810;28;19923;-69
2023/10/20 09:12:09;;;;;;;;;;;;;;;;;;5086590;28;19995;-68
2023/10/20 09:14:35;;;;;;;;;;;;;;;;;;5084558;28;20007;-70
2023/10/20 09:17:02;;;;;;;;;;;;;;;;;;5083170;28;19912;-71
2023/10/20 09:19:28;;;;;;;;;;;;;;;;;;5083509;28;19939;-70
2023/10/20 09:21:57;;;;;;;;;;;;;;;;;;5081952;28;19954;-70
2023/10/20 09:24:23;;;;;;;;;;;;;;;;;;5083114;28;19915;-71
2023/10/20 09:26:49;;;;;;;;;;;;;;;;;;5084347;28;19904;-70
2023/10/20 09:29:15;;;;;;;;;;;;;;;;;;5079786;28;19916;-69
2023/10/20 09:31:41;;;;;;;;;;;;;;;;;;5083368;28;19951;-71
2023/10/20 09:34:07;;;;;;;;;;;;;;;;;;5072430;28;19908;-68
2023/10/20 09:36:33;;;;;;;;;;;;;;;;;;5085930;28;20495;-69
2023/10/20 09:38:59;;;;;;;;;;;;;;;;;;5075785;28;20395;-71
2023/10/20 09:41:27;;;;;;;;;;;;;;;;;;5087105;28;19908;-69
2023/10/20 09:43:53;;;;;;;;;;;;;;;;;;5087090;28;20348;-68
2023/10/20 09:46:19;;;;;;;;;;;;;;;;;;5088598;28;19995;-69
2023/10/20 09:48:45;;;;;;;;;;;;;;;;;;5069245;28;20425;-67
2023/10/20 09:51:11;;;;;;;;;;;;;;;;;;5045242;28;19909;-68
2023/10/20 09:53:37;;;;;;;;;;;;;;;;;;5046417;28;19905;-69
2023/10/20 09:56:03;;;;;;;498.87;265.27;;;;;;;;;;5046358;28;20377;-69
2023/10/20 09:58:29;;;;;;;;;;;;;;;;;;5053240;28;20033;-69
2023/10/20 10:00:55;;;;;;;;;;;;;;;;;;5052434;28;19912;-69
2023/10/20 10:03:21;;;;;;;;;;;;;;;;;;5052843;28;19911;-68
2023/10/20 10:05:47;;;;;;;;;;;;;;;;;;5043976;28;20371;-69
2023/10/20 10:08:13;;;;;;;;;;;;;;;;;;5053840;28;20357;-67
2023/10/20 10:10:39;;;;;;;;;;;;;;;;;;5055314;28;20319;-69
2023/10/20 10:13:05;;;;;;;;;;;;;;;;;;5054334;28;19980;-67
2023/10/20 10:15:31;;;;;;;;;;;;;;;;;;5055187;28;19904;-67
2023/10/20 10:17:57;;;;;;;;;;;;;;;;;;5050567;28;19913;-67
2023/10/20 10:20:23;;;;;;;;;;;;;;;;;;5046517;28;19909;-69
2023/10/20 10:22:49;;;;;;;;;;;;;;;;;;5033349;28;19909;-69
2023/10/20 10:25:16;;;;;;;;;;;;;;;;;;5033421;28;19905;-68
2023/10/20 10:27:42;;;;;;;;;;;;;;;;;;5031361;28;20414;-68
2023/10/20 10:30:09;;;;;;;;;;;;;;;;;;5032142;28;20011;-69
2023/10/20 10:32:44;;;;;;;492.63;271.42;;;;;;;;;;5030052;28;20386;-69
2023/10/20 10:35:29;;;;;;;;;;;;;;;;;;5027913;28;20394;-71
2023/10/20 10:37:55;;;;;;;;;;;;;;;;;;5048915;28;19912;-68
2023/10/20 10:40:22;;;;;;;476.33;259.17;;;;;;;;;;5052187;28;20278;-69
2023/10/20 10:42:49;;;;;;;;;;;;;;;;;;5051352;28;20028;-68
2023/10/20 10:45:15;;;;;;;;;;;;;;;;;;5052009;28;19995;-68
2023/10/20 10:47:41;;;;;;;451.02;254.93;;;;;;;;;;5051933;28;20394;-69
2023/10/20 10:50:07;;;;;;;;;;;;;;;;;;5072447;28;20144;-68
2023/10/20 10:52:34;;;;;;;;;;;;;;;;;;5075308;28;20338;-69
2023/10/20 10:55:00;;;;;;;;;;;;;;;;;;5072889;28;19908;-69
2023/10/20 10:57:26;;;;;;;;;;;;;;;;;;5074442;28;19904;-69
2023/10/20 10:59:52;;;;;;;;;;;;;;;;;;5074362;28;19947;-69
2023/10/20 11:02:18;;;;;;;;;;;;;;;;;;5073617;28;20322;-68
2023/10/20 11:04:44;;;;;;;;;;;;;;;;;;5074341;28;19905;-68
2023/10/20 11:07:13;;;;;;;;;;;;;;;;;;5074845;28;19951;-68
2023/10/20 11:09:40;;;;;;;;;;;;;;;;;;5075002;28;19912;-69
2023/10/20 11:12:05;;;;;;;;;;;;;;;;;;5071719;28;20280;-69
2023/10/20 11:14:32;;;;;;;;;;;;;;;;;;5073371;28;19905;-70
2023/10/20 11:16:58;;;;;;;;;;;;;;;;;;5073053;28;19904;-68
2023/10/20 11:19:24;;;;;;;;;;;;;;;;;;5072685;28;20371;-69
2023/10/20 11:21:50;;;;;;;;;;;;;;;;;;5072541;28;19908;-69
2023/10/20 11:24:16;;;;;;;;;;;;;;;;;;5070894;28;19920;-69
2023/10/20 11:26:42;;;;;;;;;;;;;;;;;;5070745;28;20438;-69
2023/10/20 11:29:08;;;;;;;;;;;;;;;;;;5071883;28;19962;-69
2023/10/20 11:31:35;;;;;;;;;;;;;;;;;;5073970;28;19905;-69
2023/10/20 11:34:01;;;;;;;541.55;281.58;;;;;;;;;;5063750;28;20407;-71
2023/10/20 11:36:27;;;;;;;467.23;252.60;;;;;;;;;;5058753;28;20078;-70
2023/10/20 11:38:54;;;;;;;;;;;;;;;;;;5053582;28;20040;-69
2023/10/20 11:41:21;;;;;;;;;;;;;;;;;;5053602;28;19909;-70
2023/10/20 11:43:47;;;;;;;;;;;;;;;;;;5059394;28;19991;-70
2023/10/20 11:46:13;;;;;;;;;;;;;;;;;;5070211;28;19954;-73
2023/10/20 11:48:39;;;;;;;;;;;;;;;;;;5078760;28;19916;-67
2023/10/20 11:51:05;;;;;;;;;;;;;;;;;;5091503;28;20412;-68
2023/10/20 11:53:31;;;;;;;;;;;;;;;;;;5072569;28;20296;-67
2023/10/20 11:55:58;;;;;;;;;;;;;;;;;;5090968;28;19964;-64
2023/10/20 11:58:24;;;;;;;;;;;;;;;;;;5074544;28;20257;-65
2023/10/20 12:00:50;;;;;;;;;;;;;;;;;;5080516;28;19919;-64
2023/10/20 12:03:16;;;;;;;;;;;;;;;;;;5091241;28;19908;-65
2023/10/20 12:05:43;;;;;;;;;;;;;;;;;;5093040;28;19911;-66
2023/10/20 12:08:09;;;;;;;;;;;;;;;;;;5083067;28;20004;-66
2023/10/20 12:10:35;;;;;;;;;;;;;;;;;;5090933;28;20046;-66
2023/10/20 12:13:04;;;;;;;348.20;186.20;;;;;;;;;;5091623;28;20040;-64
2023/10/20 12:15:30;;;;;;;;;;;;;;;;;;5092012;28;20024;-65
2023/10/20 12:17:57;;;;;;;651.58;296.42;;;;;;;;;;5072299;28;20762;-65
2023/10/20 12:20:24;;;;;;;480.38;263.48;;;;;;;;;;5092431;28;20073;-66
2023/10/20 12:22:55;;;;;;;;;;;;;;;;;;5073088;28;20358;-66
2023/10/20 12:25:21;;;;;;;;;;;;;;;;;;5073154;28;19970;-66
2023/10/20 12:27:47;;;;;;;550.08;294.58;;;;;;;;;;5071062;28;20410;-66
2023/10/20 12:30:13;;;;;;;;;;;;;;;;;;5072266;28;20068;-66
2023/10/20 12:32:39;;;;;;;;;;;;;;;;;;5084024;28;19951;-66
2023/10/20 12:35:05;;;;;;;487.83;276.75;;;;;;;;;;5074807;28;20291;-66
2023/10/20 12:37:32;;;;;;;;;;;;;;;;;;5092567;28;20034;-66
2023/10/20 12:39:59;;;;;;;;;;;;;;;;;;5093492;28;19908;-66
2023/10/20 12:42:27;;;;;;;;;;;;;;;;;;5091208;28;20391;-66
2023/10/20 12:44:53;;;;;;;;;;;;;;;;;;5091455;28;19904;-66
2023/10/20 12:47:20;;;;;;;;;;;;;;;;;;5092749;28;19904;-72
2023/10/20 12:49:46;;;;;;;;;;;;;;;;;;5093040;28;19916;-68
2023/10/20 12:52:15;;;;;;;;;;;;;;;;;;5093216;28;19904;-65
2023/10/20 12:54:41;;;;;;;479.25;275.08;;;;;;;;;;5074574;28;19915;-65
2023/10/20 12:57:07;;;;;;;;;;;;;;;;;;5092758;28;20024;-70
2023/10/20 12:59:33;;;;;;;;;;;;;;;;;;5095424;28;19911;-70
2023/10/20 13:01:59;;;;;;;;;;;;;;;;;;5074200;28;20003;-71
2023/10/20 13:04:26;;;;;;;;;;;;;;;;;;5092858;28;19958;-71
2023/10/20 13:06:52;;;;;;;528.67;288.92;;;;;;;;;;5092036;28;20727;-68
2023/10/20 13:09:18;;;;;;;;;;;;;;;;;;5085746;28;20437;-70
2023/10/20 13:11:44;;;;;;;;;;;;;;;;;;5078078;28;19984;-68
2023/10/20 13:14:10;;;;;;;;;;;;;;;;;;5085845;28;19912;-71
2023/10/20 13:16:37;;;;;;;;;;;;;;;;;;5092820;28;19962;-70
2023/10/20 13:19:03;;;;;;;;;;;;;;;;;;5089898;28;19976;-75
2023/10/20 13:21:29;;;;;;;;;;;;;;;;;;5093551;28;20283;-74
2023/10/20 13:23:55;;;;;;;;;;;;;;;;;;5093635;28;19911;-73
2023/10/20 13:26:21;;;;;;;;;;;;;;;;;;5093400;28;19904;-74
2023/10/20 13:28:47;;;;;;;;;;;;;;;;;;5093881;28;20022;-74
2023/10/20 13:31:16;;;;;;;533.50;296.38;;;;;;;;;;5092236;28;20397;-74
2023/10/20 13:33:44;;;;;;;441.02;247.85;;;;;;;;;;5092383;28;20016;-74
2023/10/20 13:36:10;;;;;;;;;;;;;;;;;;5094957;28;20024;-73
2023/10/20 13:38:37;;;;;;;543.45;294.63;;;;;;;;;;5076965;28;20397;-74
2023/10/20 13:41:03;;;;;;;;;;;;;;;;;;5096534;28;20035;-73
2023/10/20 13:43:29;;;;;;;;;;;;;;;;;;5096590;28;20007;-73
2023/10/20 13:45:55;;;;;;;560.70;293.60;;;;;;;;;;5093467;28;20480;-74
2023/10/20 13:48:21;;;;;;;;;;;;;;;;;;5094614;28;20500;-74
2023/10/20 13:50:47;;;;;;;;;;;;;;;;;;5095001;28;20006;-74
2023/10/20 13:53:14;;;;;;;;;;;;;;;;;;5094536;28;19904;-74
2023/10/20 13:55:40;;;;;;;;;;;;;;;;;;5094778;28;19954;-74
2023/10/20 13:58:06;;;;;;;531.75;291.75;;;;;;;;;;5093908;28;20386;-74
2023/10/20 14:00:33;;;;;;;;;;;;;;;;;;5095169;28;20035;-74
2023/10/20 14:03:03;;;;;;;501.30;288.67;;;;;;;;;;5095465;28;20369;-74
2023/10/20 14:05:29;;;;;;;;;;;;;;;;;;5096727;28;20158;-74
2023/10/20 14:07:57;;;;;;;;;;;;;;;;;;5096327;28;19954;-74
2023/10/20 14:10:23;;;;;;;;;;;;;;;;;;5096655;28;19911;-74
2023/10/20 14:12:49;;;;;;;;;;;;;;;;;;5096632;28;20275;-73
2023/10/20 14:15:15;;;;;;;;;;;;;;;;;;5096484;28;19973;-73
2023/10/20 14:17:40;;;;;;;;;;;;;;;;;;5097429;28;20385;-73
2023/10/20 14:20:08;;;;;;;;;;;;;;;;;;5078630;28;19904;-73
2023/10/20 14:22:34;;;;;;;;;;;;;;;;;;5077766;28;19911;-73
2023/10/20 14:25:00;;;;;;;;;;;;;;;;;;5096744;28;20314;-74
2023/10/20 14:27:26;;;;;;;;;;;;;;;;;;5096396;28;20301;-73
2023/10/20 14:29:52;;;;;;;;;;;;;;;;;;5095757;28;19957;-74
2023/10/20 14:32:18;;;;;;;;;;;;;;;;;;5096178;28;19949;-74
2023/10/20 14:34:44;;;;;;;;;;;;;;;;;;5096127;28;19904;-73
2023/10/20 14:37:10;;;;;;;;;;;;;;;;;;5095840;28;20303;-73
2023/10/20 14:39:39;;;;;;;;;;;;;;;;;;5096340;28;19904;-73
2023/10/20 14:42:05;;;;;;;;;;;;;;;;;;5095703;28;20381;-73
2023/10/20 14:44:31;;;;;;;496.05;283.10;;;;;;;;;;5094845;28;20389;-73
2023/10/20 14:46:57;;;;;;;;;;;;;;;;;;5077982;28;20032;-73
2023/10/20 14:49:24;;;;;;;;;;;;;;;;;;5095819;28;19939;-73
2023/10/20 14:51:50;;;;;;;;;;;;;;;;;;5077875;28;19908;-73
2023/10/20 14:54:19;;;;;;;;;;;;;;;;;;5096227;28;19910;-73
2023/10/20 14:56:45;;;;;;;;;;;;;;;;;;5077892;28;19908;-73
2023/10/20 14:59:11;;;;;;;;;;;;;;;;;;5081626;28;20333;-73
2023/10/20 15:01:37;;;;;;;;;;;;;;;;;;5096278;28;19911;-73
2023/10/20 15:04:03;;;;;;;;;;;;;;;;;;5077850;28;20371;-73
2023/10/20 15:06:29;;;;;;;;;;;;;;;;;;5096038;28;19904;-73
2023/10/20 15:08:55;;;;;;;;;;;;;;;;;;5095823;28;19912;-73
2023/10/20 15:11:21;;;;;;;;;;;;;;;;;;5096195;28;19927;-73
2023/10/20 15:13:47;;;;;;;;;;;;;;;;;;5095407;28;19998;-73
2023/10/20 15:16:16;;;;;;;;;;;;;;;;;;5095385;28;19910;-73
2023/10/20 15:18:42;;;;;;;;;;;;;;;;;;5094962;28;19904;-72
2023/10/20 15:21:08;;;;;;;;;;;;;;;;;;5095210;28;20310;-74
2023/10/20 15:23:34;;;;;;;;;;;;;;;;;;5093267;28;19904;-73
2023/10/20 15:26:00;;;;;;;;;;;;;;;;;;5094688;28;19912;-73
2023/10/20 15:28:26;;;;;;;;;;;;;;;;;;5095069;28;20374;-73
2023/10/20 15:30:52;;;;;;;;;;;;;;;;;;5076741;28;20390;-73
2023/10/20 15:33:18;;;;;;;;;;;;;;;;;;5094604;28;19911;-73
2023/10/20 15:35:44;;;;;;;;;;;;;;;;;;5095222;28;19957;-73
2023/10/20 15:38:11;;;;;;;;;;;;;;;;;;5094595;28;19911;-73
2023/10/20 15:40:36;;;;;;;;;;;;;;;;;;5094875;28;19904;-73
2023/10/20 15:43:03;;;;;;;;;;;;;;;;;;5094874;28;19904;-73
2023/10/20 15:45:29;;;;;;;;;;;;;;;;;;5094496;28;19904;-73
2023/10/20 15:47:55;;;;;;;;;;;;;;;;;;5093511;28;19958;-73
2023/10/20 15:50:21;;;;;;;;;;;;;;;;;;5094530;28;19904;-73
2023/10/20 15:52:47;;;;;;;;;;;;;;;;;;5094439;28;19994;-74
2023/10/20 15:55:13;;;;;;;;;;;;;;;;;;5094894;28;20444;-73
2023/10/20 15:57:39;;;;;;;;;;;;;;;;;;5094075;28;19965;-72
2023/10/20 16:00:05;;;;;;;;;;;;;;;;;;5094209;28;19943;-72
2023/10/20 16:02:31;;;;;;;;;;;;;;;;;;5094106;28;19991;-72
2023/10/20 16:04:57;;;;;;;;;;;;;;;;;;5094187;28;19908;-72
2023/10/20 16:07:23;;;;;;;;;;;;;;;;;;5094175;28;20260;-72
2023/10/20 16:09:49;;;;;;;;;;;;;;;;;;5076018;28;20333;-74
2023/10/20 16:12:15;;;;;;;;;;;;;;;;;;5076181;28;19904;-72
2023/10/20 16:14:41;;;;;;;;;;;;;;;;;;5094161;28;19927;-72
2023/10/20 16:17:07;;;;;;;;;;;;;;;;;;5094643;28;19998;-72
2023/10/20 16:19:33;;;;;;;;;;;;;;;;;;5094293;28;20343;-72
2023/10/20 16:22:17;;;;;;;;;;;;;;;;;;5111586;27;20461;-73
2023/10/20 16:24:46;;;;;;;;;;;;;;;;;;5111050;28;19907;-74
2023/10/20 16:27:12;;;;;;;;;;;;;;;;;;5112102;28;19918;-73
2023/10/20 16:29:38;;;;;;;;;;;;;;;;;;5111284;28;19930;-73
2023/10/20 16:32:04;;;;;;;;;;;;;;;;;;5111606;28;19912;-74
2023/10/20 16:34:30;;;;;;;;;;;;;;;;;;5111166;28;20318;-74
2023/10/20 16:36:56;;;;;;;;;;;;;;;;;;5111502;28;19904;-73
2023/10/20 16:39:22;;;;;;;;;;;;;;;;;;5111461;28;19994;-73
2023/10/20 16:41:48;;;;;;;;;;;;;;;;;;5110880;28;19912;-73
2023/10/20 16:44:14;;;;;;;;;;;;;;;;;;5111428;28;19992;-73
2023/10/20 16:46:40;;;;;;;;;;;;;;;;;;5111329;28;20322;-73
2023/10/20 16:49:06;;;;;;;;;;;;;;;;;;5110966;28;19904;-73
2023/10/20 16:51:33;;;;;;;;;;;;;;;;;;5111170;28;19904;-73
2023/10/20 16:53:59;;;;;;;;;;;;;;;;;;5110454;28;19912;-72
2023/10/20 16:56:25;;;;;;;;;;;;;;;;;;5110819;28;20364;-74
2023/10/20 16:58:51;;;;;;;;;;;;;;;;;;5111085;28;19915;-72